Time;durP1;ratioP1;P1;durP2;ratioP2;P2;SDS_P1;SDS_P2;PMS_P1;PMS_P2;Temp;Humidity;BMP_temperature;BMP_pressure;BME280_temperature;BME280_humidity;BME280_pressure;Samples;Min_cycle;Max_cycle;Signal;HPM_P1;HPM_P2
2022/04/13 00:02:20;;;;;;;9.93;6.63;;;13.90;99.90;;;;;;5008524;28;20064;-87
2022/04/13 00:04:46;;;;;;;9.98;6.50;;;13.90;99.90;;;;;;4999341;28;20037;-87
2022/04/13 00:07:12;;;;;;;11.63;6.20;;;13.90;99.90;;;;;;5002208;28;20037;-87
2022/04/13 00:09:37;;;;;;;10.02;6.50;;;13.90;99.90;;;;;;5022450;28;20041;-87
2022/04/13 00:12:06;;;;;;;8.93;6.70;;;13.90;99.90;;;;;;5000965;28;20124;-88
2022/04/13 00:14:32;;;;;;;8.43;6.70;;;13.90;99.90;;;;;;5002815;28;20030;-88
2022/04/13 00:16:57;;;;;;;9.68;6.60;;;13.80;99.90;;;;;;5029836;28;20045;-88
2022/04/13 00:19:24;;;;;;;12.88;6.97;;;13.80;99.90;;;;;;5012724;28;20060;-87
2022/04/13 00:21:50;;;;;;;9.77;7.20;;;13.80;99.90;;;;;;5039747;28;20050;-88
2022/04/13 00:24:15;;;;;;;9.60;6.20;;;13.80;99.90;;;;;;5016055;28;20042;-87
2022/04/13 00:26:41;;;;;;;11.18;7.13;;;13.70;99.90;;;;;;5036891;28;20029;-87
2022/04/13 00:29:07;;;;;;;9.50;6.75;;;13.60;99.90;;;;;;5024518;28;20118;-87
2022/04/13 00:31:33;;;;;;;11.10;7.43;;;13.60;99.90;;;;;;4995217;28;20045;-87
2022/04/13 00:33:58;;;;;;;9.93;7.18;;;14.40;99.90;;;;;;5030965;28;20540;-87
2022/04/13 00:36:24;;;;;;;10.27;7.45;;;14.10;99.90;;;;;;5014912;28;20044;-87
2022/04/13 00:38:50;;;;;;;9.55;7.47;;;13.60;99.90;;;;;;5030662;28;20076;-88
2022/04/13 00:41:17;;;;;;;12.18;7.30;;;13.60;99.90;;;;;;5026014;28;20046;-87
2022/04/13 00:43:43;;;;;;;12.20;7.65;;;13.50;99.90;;;;;;5028123;28;20029;-86
2022/04/13 00:46:08;;;;;;;10.90;7.43;;;13.50;99.90;;;;;;5016625;28;20060;-87
2022/04/13 00:48:40;;;;;;;11.20;7.43;;;13.50;99.90;;;;;;5025768;28;20036;-88
2022/04/13 00:51:06;;;;;;;9.65;6.95;;;13.50;99.90;;;;;;5034750;28;20372;-88
2022/04/13 00:53:34;;;;;;;13.18;7.60;;;13.50;99.90;;;;;;5030400;28;20047;-87
2022/04/13 00:56:03;;;;;;;10.70;7.57;;;13.50;99.90;;;;;;5001298;28;20042;-88
2022/04/13 00:58:31;;;;;;;12.25;7.50;;;13.50;99.90;;;;;;5014055;28;20491;-88
2022/04/13 01:00:57;;;;;;;10.38;7.30;;;13.50;99.90;;;;;;5034192;28;20041;-88
2022/04/13 01:03:25;;;;;;;13.20;7.55;;;13.50;99.90;;;;;;5033488;28;20116;-88
2022/04/13 01:05:52;;;;;;;11.80;7.70;;;13.50;99.90;;;;;;5032562;28;20037;-87
2022/04/13 01:08:19;;;;;;;11.98;8.18;;;13.50;99.90;;;;;;5050491;28;20037;-87
2022/04/13 01:10:46;;;;;;;11.50;7.90;;;13.50;99.90;;;;;;5026163;28;20452;-88
2022/04/13 01:13:13;;;;;;;13.10;8.07;;;13.50;99.90;;;;;;5029164;28;20041;-88
2022/04/13 01:15:39;;;;;;;11.48;7.75;;;13.80;99.90;;;;;;5012757;28;20052;-88
2022/04/13 01:18:05;;;;;;;10.45;8.05;;;13.50;99.90;;;;;;5013951;28;20128;-87
2022/04/13 01:20:31;;;;;;;11.93;8.10;;;13.40;99.90;;;;;;5014130;28;20124;-88
2022/04/13 01:22:57;;;;;;;12.80;8.55;;;13.40;99.90;;;;;;5014236;28;20200;-89
2022/04/13 01:25:23;;;;;;;11.65;7.90;;;13.30;99.90;;;;;;5014536;28;20514;-89
2022/04/13 01:27:48;;;;;;;10.55;8.23;;;13.30;99.90;;;;;;5014471;28;20037;-89
2022/04/13 01:30:32;;;;;;;11.77;7.70;;;13.30;99.90;;;;;;5014361;28;20072;-89
2022/04/13 01:32:58;;;;;;;12.43;8.38;;;13.30;99.90;;;;;;5010297;28;20033;-89
2022/04/13 01:35:24;;;;;;;11.35;8.00;;;13.30;99.90;;;;;;5014020;28;20495;-88
2022/04/13 01:37:49;;;;;;;10.90;8.00;;;13.30;99.90;;;;;;5014029;28;20128;-88
2022/04/13 01:40:15;;;;;;;12.02;8.38;;;13.20;99.90;;;;;;5013693;28;20049;-88
2022/04/13 01:42:42;;;;;;;12.65;8.32;;;13.20;99.90;;;;;;5030433;28;20041;-89
2022/04/13 01:45:08;;;;;;;14.07;8.98;;;13.20;99.90;;;;;;5030574;28;20045;-88
2022/04/13 01:47:33;;;;;;;14.43;8.73;;;13.20;99.90;;;;;;5013748;28;20037;-87
2022/04/13 01:49:59;;;;;;;13.57;8.63;;;13.20;99.90;;;;;;5013217;28;20073;-88
2022/04/13 01:52:26;;;;;;;13.80;8.95;;;13.10;99.90;;;;;;5013509;28;20042;-87
2022/04/13 01:54:51;;;;;;;16.70;8.82;;;13.10;99.90;;;;;;5001148;28;20041;-88
2022/04/13 01:57:19;;;;;;;13.85;9.40;;;13.10;99.90;;;;;;4995825;28;20100;-86
2022/04/13 01:59:44;;;;;;;16.50;9.57;;;13.10;99.90;;;;;;4994011;28;20052;-88
2022/04/13 02:02:11;;;;;;;11.82;8.98;;;13.10;99.90;;;;;;4995219;28;20412;-88
2022/04/13 02:04:36;;;;;;;15.13;9.63;;;13.10;99.90;;;;;;5008878;28;20112;-86
2022/04/13 02:07:02;;;;;;;14.52;10.05;;;13.00;99.90;;;;;;4994204;28;20133;-87
2022/04/13 02:09:28;;;;;;;14.20;10.10;;;13.00;99.90;;;;;;5013650;28;20542;-88
2022/04/13 02:11:53;;;;;;;14.15;9.88;;;13.00;99.90;;;;;;5010477;28;20516;-88
2022/04/13 02:14:19;;;;;;;14.75;9.93;;;13.00;99.90;;;;;;4996642;28;20091;-87
2022/04/13 02:16:45;;;;;;;15.60;9.57;;;13.00;99.90;;;;;;4994923;28;20042;-87
2022/04/13 02:19:12;;;;;;;12.75;9.77;;;13.00;99.90;;;;;;5012506;28;20072;-87
2022/04/13 02:21:39;;;;;;;13.15;10.30;;;13.00;99.90;;;;;;5008597;28;20061;-86
2022/04/13 02:24:05;;;;;;;14.10;9.85;;;13.00;99.90;;;;;;5019629;28;20099;-86
2022/04/13 02:26:30;;;;;;;16.38;10.63;;;12.90;99.90;;;;;;4997913;28;20041;-87
2022/04/13 02:28:57;;;;;;;13.88;9.98;;;12.90;99.90;;;;;;5011506;28;20578;-87
2022/04/13 02:31:22;;;;;;;15.45;10.63;;;12.90;99.90;;;;;;5003489;28;20041;-87
2022/04/13 02:33:51;;;;;;;17.35;10.73;;;12.90;99.90;;;;;;5012486;28;20042;-86
2022/04/13 02:36:17;;;;;;;13.95;10.02;;;12.80;99.90;;;;;;4999565;28;20116;-86
2022/04/13 02:38:42;;;;;;;12.75;10.27;;;12.80;99.90;;;;;;4997948;28;20045;-86
2022/04/13 02:41:08;;;;;;;15.68;11.00;;;12.80;99.90;;;;;;5003557;28;20068;-86
2022/04/13 02:43:34;;;;;;;15.77;11.25;;;12.80;99.90;;;;;;4998294;28;20143;-86
2022/04/13 02:45:59;;;;;;;13.25;10.90;;;12.80;99.90;;;;;;5005881;28;20128;-87
2022/04/13 02:48:25;;;;;;;17.02;11.48;;;12.70;99.90;;;;;;5000122;28;20041;-86
2022/04/13 02:50:52;;;;;;;16.38;10.80;;;12.70;99.90;;;;;;5002728;28;20044;-86
2022/04/13 02:53:18;;;;;;;16.98;10.63;;;12.70;99.90;;;;;;4996109;28;20046;-86
2022/04/13 02:55:43;;;;;;;17.98;11.57;;;12.60;99.90;;;;;;4996341;28;20739;-86
2022/04/13 02:58:09;;;;;;;18.35;11.43;;;12.60;99.90;;;;;;5014923;28;20041;-85
2022/04/13 03:00:35;;;;;;;17.73;11.45;;;12.60;99.90;;;;;;5026845;28;20037;-86
2022/04/13 03:03:00;;;;;;;18.42;11.73;;;12.50;99.90;;;;;;4998164;28;20050;-86
2022/04/13 03:05:26;;;;;;;17.30;11.68;;;12.50;99.90;;;;;;5012927;28;20042;-85
2022/04/13 03:07:51;;;;;;;16.77;11.88;;;12.50;99.90;;;;;;5009008;28;20037;-87
2022/04/13 03:10:17;;;;;;;19.25;11.85;;;12.50;99.90;;;;;;4998236;28;20038;-86
2022/04/13 03:12:43;;;;;;;18.00;11.95;;;12.50;99.90;;;;;;5009607;28;20037;-87
2022/04/13 03:15:10;;;;;;;17.20;11.40;;;12.40;99.90;;;;;;4999280;28;20764;-87
2022/04/13 03:17:35;;;;;;;17.40;12.05;;;12.30;99.90;;;;;;4995305;28;20462;-86
2022/04/13 03:20:01;;;;;;;16.23;12.77;;;12.30;99.90;;;;;;4997146;28;20121;-87
2022/04/13 03:22:27;;;;;;;16.25;12.77;;;12.30;99.90;;;;;;5019786;28;20099;-87
2022/04/13 03:24:53;;;;;;;18.13;12.65;;;12.20;99.90;;;;;;4997960;28;20065;-86
2022/04/13 03:27:19;;;;;;;17.77;12.20;;;12.20;99.90;;;;;;5012675;28;20097;-87
2022/04/13 03:29:44;;;;;;;17.67;12.55;;;12.10;99.90;;;;;;5007540;28;20041;-87
2022/04/13 03:32:10;;;;;;;17.45;13.05;;;12.10;99.90;;;;;;4996816;28;20515;-87
2022/04/13 03:34:36;;;;;;;18.02;12.60;;;12.00;99.90;;;;;;4996017;28;20492;-87
2022/04/13 03:37:02;;;;;;;19.33;12.90;;;12.00;99.90;;;;;;5001318;28;20046;-87
2022/04/13 03:39:28;;;;;;;20.42;13.10;;;12.00;99.90;;;;;;4997306;28;20038;-87
2022/04/13 03:41:54;;;;;;;22.70;14.05;;;12.00;99.90;;;;;;5011091;28;20432;-88
2022/04/13 03:44:20;;;;;;;19.73;13.20;;;12.00;99.90;;;;;;5020472;28;20041;-87
2022/04/13 03:46:46;;;;;;;20.48;12.98;;;12.00;99.90;;;;;;5009848;28;20064;-88
2022/04/13 03:49:11;;;;;;;21.88;13.50;;;11.90;99.90;;;;;;5006223;28;20069;-87
2022/04/13 03:51:37;;;;;;;19.58;13.50;;;12.00;99.90;;;;;;5014392;28;20060;-90
2022/04/13 03:54:03;;;;;;;17.88;13.00;;;11.90;99.90;;;;;;5015622;28;20048;-89
2022/04/13 03:56:29;;;;;;;21.10;14.32;;;11.90;99.90;;;;;;5021220;28;20119;-87
2022/04/13 03:58:59;;;;;;;22.80;14.43;;;12.00;99.90;;;;;;4997187;28;20038;-87
2022/04/13 04:01:25;;;;;;;19.15;14.10;;;12.10;99.90;;;;;;5011992;28;20407;-87
2022/04/13 04:03:51;;;;;;;19.40;14.38;;;12.30;99.90;;;;;;5014239;28;20034;-88
2022/04/13 04:06:17;;;;;;;21.33;14.50;;;12.10;99.90;;;;;;5001176;28;20470;-87
2022/04/13 04:08:42;;;;;;;22.35;15.25;;;11.90;99.90;;;;;;5005681;28;20040;-88
2022/04/13 04:11:08;;;;;;;19.88;13.30;;;11.90;99.90;;;;;;4999851;28;20064;-87
2022/04/13 04:13:33;;;;;;;22.45;13.73;;;12.00;99.90;;;;;;5020081;28;20530;-88
2022/04/13 04:16:00;;;;;;;18.05;12.50;;;12.00;99.90;;;;;;4995859;28;20037;-87
2022/04/13 04:18:26;;;;;;;17.60;13.02;;;12.40;99.90;;;;;;5006533;28;20041;-86
2022/04/13 04:20:51;;;;;;;21.60;13.75;;;11.90;99.90;;;;;;5018868;28;20108;-88
2022/04/13 04:23:17;;;;;;;23.42;14.07;;;12.00;99.90;;;;;;4998957;28;20129;-87
2022/04/13 04:25:42;;;;;;;23.70;13.57;;;11.80;99.90;;;;;;5013005;28;20041;-88
2022/04/13 04:28:11;;;;;;;18.92;13.48;;;11.70;99.90;;;;;;5003583;28;20033;-88
2022/04/13 04:30:41;;;;;;;18.25;12.95;;;11.70;99.90;;;;;;4996022;28;20038;-87
2022/04/13 04:33:07;;;;;;;20.05;14.20;;;12.00;99.90;;;;;;5013591;28;20081;-87
2022/04/13 04:35:33;;;;;;;22.60;14.40;;;12.00;99.90;;;;;;5001005;28;20037;-87
2022/04/13 04:38:02;;;;;;;18.38;13.77;;;11.90;99.90;;;;;;4995991;28;20100;-88
2022/04/13 04:40:28;;;;;;;23.60;15.32;;;11.60;99.90;;;;;;5001382;28;20045;-88
2022/04/13 04:42:54;;;;;;;23.10;15.35;;;11.60;99.90;;;;;;5001193;28;20041;-87
2022/04/13 04:45:21;;;;;;;22.67;14.90;;;11.50;99.90;;;;;;4998603;28;20710;-87
2022/04/13 04:47:49;;;;;;;25.52;15.15;;;11.50;99.90;;;;;;4997871;28;20037;-88
2022/04/13 04:50:19;;;;;;;26.30;15.32;;;11.50;99.90;;;;;;4997297;28;20034;-88
2022/04/13 04:52:46;;;;;;;21.48;15.13;;;11.60;99.90;;;;;;4997613;28;20115;-87
2022/04/13 04:55:13;;;;;;;23.75;15.23;;;11.50;99.90;;;;;;4998630;28;20126;-87
2022/04/13 04:57:39;;;;;;;22.50;14.57;;;11.60;99.90;;;;;;5000702;28;20056;-88
2022/04/13 05:00:08;;;;;;;23.13;14.65;;;11.60;99.90;;;;;;5015202;28;20496;-88
2022/04/13 05:02:37;;;;;;;21.92;14.80;;;11.60;99.90;;;;;;5009156;28;20038;-88
2022/04/13 05:05:03;;;;;;;20.05;14.40;;;11.60;99.90;;;;;;4999920;28;20125;-88
2022/04/13 05:07:29;;;;;;;23.35;15.65;;;11.60;99.90;;;;;;4998844;28;22099;-88
2022/04/13 05:09:54;;;;;;;20.70;14.98;;;11.70;99.90;;;;;;5010841;28;20037;-87
2022/04/13 05:12:20;;;;;;;24.42;15.13;;;11.70;99.90;;;;;;5010309;28;20570;-86
2022/04/13 05:14:45;;;;;;;23.50;15.18;;;11.70;99.90;;;;;;5003613;28;20037;-87
2022/04/13 05:17:11;;;;;;;22.30;14.77;;;11.70;99.90;;;;;;5004857;28;20099;-87
2022/04/13 05:19:36;;;;;;;24.88;15.43;;;11.80;99.90;;;;;;5013231;28;20509;-87
2022/04/13 05:22:02;;;;;;;22.20;15.48;;;11.80;99.90;;;;;;5030525;28;20041;-87
2022/04/13 05:24:28;;;;;;;24.52;14.52;;;11.80;99.90;;;;;;4999681;28;20048;-88
2022/04/13 05:26:56;;;;;;;24.38;14.63;;;11.80;99.90;;;;;;4995081;28;20034;-88
2022/04/13 05:29:21;;;;;;;22.70;15.02;;;11.80;99.90;;;;;;4994789;28;20045;-87
2022/04/13 05:31:47;;;;;;;21.85;15.40;;;11.80;99.90;;;;;;5011043;28;20041;-88
2022/04/13 05:34:13;;;;;;;20.80;14.55;;;11.80;99.90;;;;;;4994612;28;20048;-87
2022/04/13 05:36:39;;;;;;;24.38;15.30;;;11.80;99.90;;;;;;4994251;28;20041;-87
2022/04/13 05:39:04;;;;;;;25.80;15.57;;;11.80;99.90;;;;;;5010690;28;20520;-87
2022/04/13 05:41:30;;;;;;;22.15;15.45;;;11.80;99.90;;;;;;5013465;28;20038;-88
2022/04/13 05:43:55;;;;;;;25.60;16.38;;;11.80;99.90;;;;;;5025113;28;20040;-87
2022/04/13 05:46:21;;;;;;;23.08;16.08;;;11.80;99.90;;;;;;5013112;28;20098;-87
2022/04/13 05:48:47;;;;;;;23.48;15.60;;;12.00;99.90;;;;;;5013405;28;20037;-88
2022/04/13 05:51:13;;;;;;;23.85;16.00;;;11.80;99.90;;;;;;5014082;28;20034;-88
2022/04/13 05:53:41;;;;;;;25.35;15.50;;;11.80;99.90;;;;;;4998177;28;20069;-88
2022/04/13 05:56:07;;;;;;;27.25;16.70;;;12.00;99.90;;;;;;4999007;28;20038;-88
2022/04/13 05:58:38;;;;;;;25.30;16.63;;;11.80;99.90;;;;;;5020088;28;20041;-88
2022/04/13 06:01:06;;;;;;;24.15;16.08;;;11.90;99.90;;;;;;5028266;28;20054;-88
2022/04/13 06:03:32;;;;;;;24.42;16.70;;;12.10;99.90;;;;;;5005372;28;20052;-88
2022/04/13 06:05:58;;;;;;;24.15;16.33;;;12.10;99.90;;;;;;5001825;28;20034;-88
2022/04/13 06:08:23;;;;;;;28.58;16.45;;;11.90;99.90;;;;;;4997386;28;20045;-88
2022/04/13 06:10:49;;;;;;;26.83;16.73;;;12.20;99.90;;;;;;4999129;28;20073;-89
2022/04/13 06:13:14;;;;;;;24.23;16.27;;;12.30;99.90;;;;;;5025537;28;20049;-89
2022/04/13 06:15:41;;;;;;;24.48;16.75;;;12.60;99.90;;;;;;5016031;28;20037;-89
2022/04/13 06:18:07;;;;;;;24.75;16.60;;;12.30;99.90;;;;;;5005554;28;20491;-88
2022/04/13 06:20:32;;;;;;;25.80;16.98;;;12.60;99.90;;;;;;5020596;28;20053;-88
2022/04/13 06:23:07;;;;;;;25.13;16.35;;;12.40;99.90;;;;;;5034101;28;20334;-89
2022/04/13 06:26:03;;;;;;;26.75;17.10;;;12.40;99.90;;;;;;5008346;28;20124;-88
2022/04/13 06:28:37;;;;;;;29.17;16.83;;;12.50;99.90;;;;;;5012904;28;20117;-88
2022/04/13 06:31:13;;;;;;;25.08;17.23;;;12.40;99.90;;;;;;5020299;28;20041;-89
2022/04/13 06:33:53;;;;;;;27.75;16.73;;;12.50;99.90;;;;;;5032751;28;20090;-88
2022/04/13 06:36:27;;;;;;;26.02;16.73;;;12.50;99.90;;;;;;5002066;28;20088;-88
2022/04/13 06:38:52;;;;;;;23.60;16.55;;;12.60;99.90;;;;;;5009780;28;20097;-88
2022/04/13 06:41:20;;;;;;;26.08;17.38;;;12.80;99.90;;;;;;5010033;28;20390;-88
2022/04/13 06:43:47;;;;;;;22.08;15.88;;;13.00;99.90;;;;;;5008994;28;20454;-88
2022/04/13 06:46:17;;;;;;;26.90;17.30;;;12.80;99.90;;;;;;5026367;28;20033;-88
2022/04/13 06:48:43;;;;;;;30.58;18.10;;;12.90;99.90;;;;;;5019251;28;20076;-88
2022/04/13 06:51:09;;;;;;;23.50;16.20;;;13.10;99.90;;;;;;5026208;28;20077;-87
2022/04/13 06:53:34;;;;;;;29.10;16.90;;;13.10;99.90;;;;;;5003475;28;20084;-88
2022/04/13 06:56:00;;;;;;;23.23;15.93;;;13.20;99.90;;;;;;5013613;28;20037;-89
2022/04/13 06:58:25;;;;;;;25.60;16.95;;;13.30;99.90;;;;;;5006207;28;20052;-88
2022/04/13 07:00:51;;;;;;;25.98;16.52;;;13.50;99.90;;;;;;5007371;28;20065;-88
2022/04/13 07:03:17;;;;;;;22.20;15.68;;;14.50;99.90;;;;;;5021283;28;20042;-88
2022/04/13 07:05:42;;;;;;;27.10;15.70;;;13.80;99.90;;;;;;5020151;28;20113;-88
2022/04/13 07:08:09;;;;;;;22.38;15.55;;;13.50;99.90;;;;;;5010026;28;20077;-88
2022/04/13 07:10:35;;;;;;;22.27;16.02;;;13.80;99.90;;;;;;5014475;28;20046;-88
2022/04/13 07:13:01;;;;;;;21.88;15.85;;;13.80;99.90;;;;;;5024382;28;20069;-88
2022/04/13 07:15:27;;;;;;;30.27;16.45;;;13.90;99.90;;;;;;5008874;28;20116;-89
2022/04/13 07:17:53;;;;;;;24.33;16.05;;;14.00;99.90;;;;;;5007289;28;20041;-88
2022/04/13 07:20:19;;;;;;;23.08;15.30;;;14.10;99.90;;;;;;5007179;28;20044;-88
2022/04/13 07:22:49;;;;;;;22.67;15.85;;;14.30;99.90;;;;;;5005968;28;20042;-88
2022/04/13 07:25:19;;;;;;;19.75;14.82;;;14.50;99.90;;;;;;5004849;28;20548;-89
2022/04/13 07:27:46;;;;;;;21.85;13.45;;;14.30;99.90;;;;;;5005706;28;20034;-88
2022/04/13 07:30:15;;;;;;;23.42;15.55;;;14.40;99.90;;;;;;5016088;28;20041;-87
2022/04/13 07:32:52;;;;;;;25.65;14.85;;;14.70;99.90;;;;;;5016010;28;20037;-88
2022/04/13 07:35:18;;;;;;;22.15;14.52;;;14.60;99.90;;;;;;5015830;28;20037;-89
2022/04/13 07:37:43;;;;;;;21.90;14.70;;;14.60;99.90;;;;;;4996006;28;20064;-88
2022/04/13 07:40:14;;;;;;;22.02;14.07;;;14.80;99.90;;;;;;5011459;28;20514;-88
2022/04/13 07:42:40;;;;;;;19.88;13.85;;;14.60;99.90;;;;;;5011597;28;20503;-88
2022/04/13 07:45:08;;;;;;;19.73;14.32;;;14.50;99.90;;;;;;5003212;28;20076;-87
2022/04/13 07:47:34;;;;;;;25.23;14.40;;;14.50;99.90;;;;;;5013958;28;20037;-87
2022/04/13 07:50:00;;;;;;;19.52;13.18;;;14.50;99.90;;;;;;5010963;28;20045;-88
2022/04/13 07:52:25;;;;;;;21.52;13.65;;;14.50;99.90;;;;;;4999619;28;20518;-88
2022/04/13 07:54:51;;;;;;;20.05;13.48;;;14.40;99.90;;;;;;5018594;28;20406;-88
2022/04/13 07:57:16;;;;;;;21.92;13.68;;;14.60;99.90;;;;;;5011605;28;20084;-88
2022/04/13 07:59:42;;;;;;;20.33;12.95;;;14.70;99.90;;;;;;5015926;28;20047;-87
2022/04/13 08:02:09;;;;;;;19.85;12.57;;;14.50;99.90;;;;;;5023646;28;20045;-87
2022/04/13 08:04:35;;;;;;;18.77;13.30;;;14.40;99.90;;;;;;5017447;28;20034;-88
2022/04/13 08:07:01;;;;;;;18.35;12.52;;;14.60;99.90;;;;;;5016059;28;20121;-88
2022/04/13 08:09:27;;;;;;;19.30;11.63;;;14.60;99.90;;;;;;5028155;28;20065;-87
2022/04/13 08:11:52;;;;;;;18.95;12.23;;;14.70;99.90;;;;;;5009657;28;20692;-87
2022/04/13 08:14:24;;;;;;;18.17;12.95;;;14.90;99.90;;;;;;5019860;28;20122;-88
2022/04/13 08:16:50;;;;;;;20.20;13.07;;;14.90;99.90;;;;;;5017545;28;20037;-87
2022/04/13 08:19:23;;;;;;;17.85;12.52;;;15.10;99.90;;;;;;5014835;28;20049;-88
2022/04/13 08:22:03;;;;;;;21.83;12.50;;;15.00;99.90;;;;;;5004848;28;20049;-88
2022/04/13 08:24:35;;;;;;;20.73;12.13;;;15.10;99.90;;;;;;5018761;28;20104;-88
2022/04/13 08:27:03;;;;;;;16.98;12.10;;;16.10;99.90;;;;;;5011871;28;20072;-88
2022/04/13 08:29:29;;;;;;;16.35;12.50;;;15.10;99.90;;;;;;4996900;28;20034;-88
2022/04/13 08:32:48;;;;;;;16.98;12.20;;;15.40;99.90;;;;;;5011127;28;20503;-86
2022/04/13 08:36:03;;;;;;;18.92;11.68;;;15.30;99.90;;;;;;4962096;28;20196;-88
2022/04/13 08:38:29;;;;;;;;;;;16.20;99.90;;;;;;5007343;28;20049;-88
2022/04/13 08:41:09;;;;;;;17.27;11.07;;;15.80;99.90;;;;;;5026300;28;19917;-88
2022/04/13 08:43:44;;;;;;;17.27;11.35;;;16.00;99.90;;;;;;5037368;28;20093;-89
2022/04/13 08:46:20;;;;;;;18.48;11.85;;;16.00;99.90;;;;;;5012238;28;20095;-88
2022/04/13 08:48:48;;;;;;;19.55;12.38;;;16.30;99.90;;;;;;5005767;28;20040;-87
2022/04/13 08:51:17;;;;;;;18.33;12.15;;;16.60;99.90;;;;;;4998940;28;20570;-87
2022/04/13 08:53:49;;;;;;;16.40;11.73;;;16.90;99.90;;;;;;5002403;28;20080;-88
2022/04/13 08:56:19;;;;;;;16.48;11.52;;;16.90;99.90;;;;;;5010299;28;20038;-87
2022/04/13 08:58:51;;;;;;;16.27;10.90;;;16.70;99.90;;;;;;5014010;28;20033;-87
2022/04/13 09:01:30;;;;;;;17.42;11.88;;;16.90;99.90;;;;;;5021826;28;20036;-87
2022/04/13 09:04:00;;;;;;;18.08;10.90;;;16.90;99.90;;;;;;5013475;28;20065;-87
2022/04/13 09:06:28;;;;;;;16.20;11.23;;;16.60;99.90;;;;;;5013110;28;20128;-87
2022/04/13 09:08:56;;;;;;;16.35;10.55;;;16.60;99.90;;;;;;5014043;28;20676;-87
2022/04/13 09:11:22;;;;;;;14.23;9.88;;;16.60;99.90;;;;;;5028591;28;20076;-86
2022/04/13 09:13:50;;;;;;;13.55;9.32;;;16.50;99.90;;;;;;5027470;28;20439;-86
2022/04/13 09:16:16;;;;;;;16.52;9.57;;;16.70;99.90;;;;;;5012265;28;20491;-86
2022/04/13 09:18:43;;;;;;;15.30;9.52;;;16.60;99.90;;;;;;5013297;28;20037;-86
2022/04/13 09:21:13;;;;;;;14.10;9.55;;;16.70;99.90;;;;;;5006330;28;20466;-87
2022/04/13 09:23:39;;;;;;;12.95;8.55;;;16.80;99.90;;;;;;5027185;28;20030;-87
2022/04/13 09:26:07;;;;;;;13.48;8.63;;;16.90;99.90;;;;;;5010126;28;20513;-86
2022/04/13 09:28:33;;;;;;;13.98;8.68;;;17.00;99.90;;;;;;5026798;28;20119;-87
2022/04/13 09:30:58;;;;;;;11.80;8.88;;;17.00;99.90;;;;;;5009190;28;20488;-87
2022/04/13 09:33:25;;;;;;;11.45;8.02;;;17.10;99.90;;;;;;5011625;28;20045;-86
2022/04/13 09:35:53;;;;;;;13.98;7.35;;;17.10;99.90;;;;;;5012806;28;20040;-86
2022/04/13 09:38:19;;;;;;;13.43;7.80;;;17.20;99.90;;;;;;5020238;28;20195;-86
2022/04/13 09:40:45;;;;;;;12.07;7.30;;;17.20;99.90;;;;;;5019829;28;20037;-85
2022/04/13 09:43:16;;;;;;;11.85;7.95;;;17.40;99.90;;;;;;5010276;28;20042;-85
2022/04/13 09:45:47;;;;;;;12.43;7.78;;;17.50;99.90;;;;;;5019960;28;20408;-85
2022/04/13 09:48:14;;;;;;;12.45;7.13;;;17.50;99.90;;;;;;5029959;28;20033;-86
2022/04/13 09:50:42;;;;;;;12.57;6.05;;;17.40;99.90;;;;;;5010249;28;20491;-86
2022/04/13 09:53:09;;;;;;;12.18;6.80;;;17.50;99.90;;;;;;4994938;28;20172;-85
2022/04/13 09:55:43;;;;;;;12.30;7.05;;;17.60;99.90;;;;;;5029565;28;20037;-86
2022/04/13 09:58:14;;;;;;;11.00;6.95;;;17.50;99.90;;;;;;5007830;28;20136;-86
2022/04/13 10:00:41;;;;;;;12.13;6.78;;;17.60;99.90;;;;;;5012887;28;20045;-86
2022/04/13 10:03:11;;;;;;;11.90;7.07;;;17.60;99.90;;;;;;5006387;28;20046;-85
2022/04/13 10:05:37;;;;;;;10.65;6.13;;;17.90;99.90;;;;;;5007835;28;20042;-84
2022/04/13 10:08:08;;;;;;;13.38;7.57;;;18.00;99.90;;;;;;5040239;28;20509;-85
2022/04/13 10:10:35;;;;;;;11.93;6.35;;;18.10;99.90;;;;;;5028989;28;20491;-85
2022/04/13 10:13:02;;;;;;;11.85;6.63;;;18.30;99.90;;;;;;5028709;28;20476;-85
2022/04/13 10:15:27;;;;;;;9.60;6.28;;;18.30;99.90;;;;;;5027233;28;20077;-85
2022/04/13 10:18:00;;;;;;;9.68;5.50;;;18.30;99.90;;;;;;5011737;28;20088;-85
2022/04/13 10:20:42;;;;;;;9.85;4.70;;;18.30;99.90;;;;;;5023183;28;20042;-85
2022/04/13 10:23:08;;;;;;;7.97;4.60;;;18.30;99.90;;;;;;5014234;28;20045;-85
2022/04/13 10:25:33;;;;;;;8.32;4.97;;;18.20;99.90;;;;;;5020600;28;20029;-85
2022/04/13 10:28:00;;;;;;;8.25;5.00;;;18.20;99.90;;;;;;5011333;28;20044;-84
2022/04/13 10:30:35;;;;;;;7.30;4.88;;;18.20;99.90;;;;;;5017138;28;20396;-86
2022/04/13 10:33:09;;;;;;;8.15;4.50;;;18.30;99.90;;;;;;5012511;28;20048;-85
2022/04/13 10:35:37;;;;;;;7.13;3.78;;;18.50;99.90;;;;;;5002911;28;20084;-85
2022/04/13 10:38:03;;;;;;;6.38;4.18;;;18.70;99.90;;;;;;5005348;28;20041;-84
2022/04/13 10:40:43;;;;;;;5.85;4.18;;;18.70;99.90;;;;;;5022296;28;20053;-85
2022/04/13 10:43:11;;;;;;;8.13;4.07;;;18.90;99.90;;;;;;5034851;28;20047;-85
2022/04/13 10:45:39;;;;;;;8.13;4.47;;;18.80;99.90;;;;;;5035071;28;20037;-85
2022/04/13 10:48:09;;;;;;;9.85;5.05;;;18.80;99.90;;;;;;5015899;28;20086;-85
2022/04/13 10:50:55;;;;;;;8.98;5.05;;;18.70;99.90;;;;;;5027239;28;20057;-85
2022/04/13 10:53:27;;;;;;;9.63;5.35;;;18.90;99.90;;;;;;5032798;28;20041;-85
2022/04/13 10:56:01;;;;;;;7.22;4.75;;;18.90;99.90;;;;;;5030224;28;20040;-85
2022/04/13 10:58:42;;;;;;;8.27;3.80;;;19.10;99.90;;;;;;5014052;28;20046;-85
2022/04/13 11:01:14;;;;;;;7.75;4.82;;;19.20;99.90;;;;;;5016581;28;20091;-85
2022/04/13 11:03:41;;;;;;;8.10;4.40;;;19.30;99.90;;;;;;5023463;28;20046;-85
2022/04/13 11:06:08;;;;;;;5.70;3.70;;;19.60;99.90;;;;;;5012690;28;20535;-85
2022/04/13 11:08:52;;;;;;;9.05;3.97;;;19.60;99.90;;;;;;4998102;28;20038;-85
2022/04/13 11:11:27;;;;;;;7.50;4.00;;;19.60;99.90;;;;;;4997701;28;20107;-84
2022/04/13 11:13:53;;;;;;;6.90;3.58;;;19.70;99.90;;;;;;5042553;28;20031;-85
2022/04/13 11:16:24;;;;;;;7.93;4.25;;;19.40;99.90;;;;;;5018286;28;20038;-85
2022/04/13 11:19:02;;;;;;;8.40;4.57;;;19.10;99.90;;;;;;5012333;28;20045;-85
2022/04/13 11:21:29;;;;;;;8.05;4.50;;;19.10;99.90;;;;;;5012614;28;20048;-84
2022/04/13 11:23:55;;;;;;;8.05;3.78;;;18.90;99.90;;;;;;5012413;28;20096;-85
2022/04/13 11:26:33;;;;;;;9.25;4.07;;;19.00;99.90;;;;;;5012335;28;20050;-85
2022/04/13 11:29:21;;;;;;;7.53;3.92;;;19.00;99.90;;;;;;5012258;28;20091;-85
2022/04/13 11:32:02;;;;;;;8.60;3.80;;;19.10;99.90;;;;;;5012291;28;20527;-85
2022/04/13 11:34:38;;;;;;;11.85;4.50;;;19.10;99.90;;;;;;5011891;28;20049;-85
2022/04/13 11:37:12;;;;;;;11.65;5.03;;;18.70;99.90;;;;;;5012541;28;20046;-85
2022/04/13 11:39:51;;;;;;;;;;;18.80;99.90;;;;;;5012524;28;20096;-85
2022/04/13 11:42:24;;;;;;;10.50;5.32;;;18.60;99.90;;;;;;4995887;28;20294;-85
2022/04/13 11:45:07;;;;;;;9.65;5.43;;;18.50;99.90;;;;;;5011537;28;20403;-85
2022/04/13 11:47:44;;;;;;;10.00;5.72;;;18.40;99.90;;;;;;5024988;28;20121;-85
2022/04/13 11:50:12;;;;;;;9.48;5.50;;;18.30;99.90;;;;;;5011585;28;20125;-85
2022/04/13 11:52:56;;;;;;;14.15;6.53;;;18.20;99.90;;;;;;5010821;28;20045;-85
2022/04/13 11:55:22;;;;;;;;;;;18.10;99.90;;;;;;5002777;28;20046;-85
2022/04/13 11:58:09;;;;;;;11.27;6.82;;;18.00;99.90;;;;;;5018440;28;20397;-85
2022/04/13 12:00:43;;;;;;;12.82;6.72;;;17.90;99.90;;;;;;5030558;28;20048;-85
2022/04/13 12:03:17;;;;;;;11.02;6.40;;;17.90;99.90;;;;;;5014110;28;20049;-85
2022/04/13 12:05:49;;;;;;;11.48;6.38;;;17.80;99.90;;;;;;4998640;28;20522;-85
2022/04/13 12:08:20;;;;;;;12.60;5.72;;;17.60;99.90;;;;;;5010810;28;20050;-84
2022/04/13 12:10:49;;;;;;;12.55;6.10;;;17.70;99.90;;;;;;4994861;28;20042;-85
2022/04/13 12:13:14;;;;;;;11.50;5.75;;;17.70;99.90;;;;;;5011238;28;20088;-85
2022/04/13 12:15:45;;;;;;;9.13;5.20;;;17.70;99.90;;;;;;4995366;28;20085;-85
2022/04/13 12:18:11;;;;;;;11.77;5.10;;;17.70;99.90;;;;;;5011328;28;20447;-85
2022/04/13 12:20:37;;;;;;;12.20;5.22;;;17.70;99.90;;;;;;5011607;28;20046;-85
2022/04/13 12:23:27;;;;;;;9.68;4.40;;;17.70;99.90;;;;;;5011281;28;20041;-85
2022/04/13 12:25:54;;;;;;;10.48;5.70;;;17.60;99.90;;;;;;4995108;28;20033;-85
2022/04/13 12:28:22;;;;;;;10.95;5.22;;;17.50;99.90;;;;;;5011506;28;20061;-85
2022/04/13 12:31:10;;;;;;;10.32;5.90;;;17.60;99.90;;;;;;4994812;28;20049;-85
2022/04/13 12:33:38;;;;;;;8.85;5.18;;;17.70;99.90;;;;;;5011118;28;20534;-85
2022/04/13 12:36:05;;;;;;;11.32;5.45;;;17.70;99.90;;;;;;5010967;28;20042;-85
2022/04/13 12:38:31;;;;;;;12.07;5.63;;;17.50;99.90;;;;;;5011392;28;20045;-85
2022/04/13 12:41:14;;;;;;;14.77;5.70;;;17.40;99.90;;;;;;5013357;28;20037;-85